createdAt,value
2019-02-24T00:01:08.748Z,102550.16
2019-02-24T00:06:12.240Z,102544.00
2019-02-24T00:11:15.729Z,102532.13
2019-02-24T00:16:19.233Z,102529.93
2019-02-24T00:21:22.715Z,102527.95
2019-02-24T00:26:26.209Z,102530.34
2019-02-24T00:31:29.704Z,102531.15
2019-02-24T00:36:33.197Z,102528.95
2019-02-24T00:41:36.691Z,102528.16
2019-02-24T00:46:40.184Z,102523.80
2019-02-24T00:51:43.675Z,102516.86
2019-02-24T00:56:47.168Z,102527.16
2019-02-24T01:01:51.226Z,102513.28
2019-02-24T01:06:54.713Z,102507.28
2019-02-24T01:11:58.208Z,102515.61
2019-02-24T01:17:01.708Z,102511.67
2019-02-24T01:22:05.204Z,102495.38
2019-02-24T01:27:08.695Z,102498.73
2019-02-24T01:32:12.186Z,102495.38
2019-02-24T01:37:15.677Z,102498.52
2019-02-24T01:42:19.176Z,102497.70
2019-02-24T01:47:22.669Z,102496.19
2019-02-24T01:52:26.157Z,102492.74
2019-02-24T01:57:29.663Z,102502.45
2019-02-24T02:02:33.161Z,102503.48
2019-02-24T02:07:36.656Z,102520.71
2019-02-24T02:12:40.153Z,102529.48
2019-02-24T02:17:43.641Z,102521.16
2019-02-24T02:22:47.132Z,102520.94
2019-02-24T02:27:50.635Z,102517.58
2019-02-24T02:32:54.126Z,102506.25
2019-02-24T02:37:57.636Z,102498.16
2019-02-24T02:43:01.136Z,102492.16
2019-02-24T02:48:04.626Z,102469.96
2019-02-24T02:53:08.129Z,102455.06
2019-02-24T02:58:11.597Z,102454.87
2019-02-24T03:03:15.091Z,102474.06
2019-02-24T03:08:18.648Z,102477.65
2019-02-24T03:13:22.138Z,102490.33
2019-02-24T03:18:26.178Z,102492.11
2019-02-24T03:23:29.661Z,102491.58
2019-02-24T03:28:33.140Z,102477.84
2019-02-24T03:33:36.615Z,102482.22
2019-02-24T03:38:40.088Z,102483.03
2019-02-24T03:43:43.558Z,102480.03
2019-02-24T03:48:47.031Z,102488.80
2019-02-24T03:53:50.574Z,102495.16
2019-02-24T03:58:54.080Z,102483.84
2019-02-24T04:03:57.539Z,102484.41
2019-02-24T04:09:01.008Z,102488.00
2019-02-24T04:14:04.523Z,102481.42
2019-02-24T04:19:08.003Z,102493.55
2019-02-24T04:24:11.875Z,102484.00
2019-02-24T04:29:24.336Z,102491.08
2019-02-24T04:34:20.564Z,102479.75
2019-02-24T04:39:24.041Z,102489.83
2019-02-24T04:44:27.514Z,102467.63
2019-02-24T04:49:30.988Z,102465.74
2019-02-24T04:54:34.470Z,102478.23
2019-02-24T04:59:37.937Z,102494.87
2019-02-24T05:04:41.409Z,102488.58
2019-02-24T05:09:44.881Z,102469.73
2019-02-24T05:14:48.352Z,102474.70
2019-02-24T05:19:51.873Z,102464.19
2019-02-24T05:24:55.333Z,102454.87
2019-02-24T05:29:58.806Z,102448.52
2019-02-24T05:35:02.402Z,102444.35
2019-02-24T05:40:06.321Z,102429.45
2019-02-24T05:45:09.797Z,102417.55
2019-02-24T05:50:13.264Z,102409.59
2019-02-24T05:55:16.735Z,102411.78
2019-02-24T06:00:20.209Z,102412.36
2019-02-24T06:05:23.681Z,102416.30
2019-02-24T06:10:27.154Z,102409.95
2019-02-24T06:15:30.624Z,102414.91
2019-02-24T06:20:34.093Z,102412.14
2019-02-24T06:25:37.613Z,102420.46
2019-02-24T06:30:41.039Z,102412.50
2019-02-24T06:35:44.510Z,102408.95
2019-02-24T06:40:47.993Z,102418.66
2019-02-24T06:45:51.463Z,102425.16
2019-02-24T06:50:59.609Z,102417.05
2019-02-24T06:56:03.083Z,102419.61
2019-02-24T07:01:06.558Z,102428.84
2019-02-24T07:06:10.031Z,102433.81
2019-02-24T07:11:13.507Z,102438.91
2019-02-24T07:16:16.980Z,102436.72
2019-02-24T07:21:20.450Z,102454.56
2019-02-24T07:26:23.928Z,102450.17
2019-02-24T07:31:27.407Z,102449.73
2019-02-24T07:36:30.879Z,102449.73
2019-02-24T07:41:34.359Z,102446.16
2019-02-24T07:46:37.835Z,102440.38
2019-02-24T07:51:41.310Z,102435.78
2019-02-24T07:56:44.780Z,102426.07
2019-02-24T08:01:48.254Z,102424.48
2019-02-24T08:06:51.736Z,102418.92
2019-02-24T08:11:55.214Z,102432.25
2019-02-24T08:16:58.687Z,102433.91
2019-02-24T08:22:02.158Z,102433.23
2019-02-24T08:27:05.633Z,102443.07
2019-02-24T08:32:09.106Z,102439.84
2019-02-24T08:37:12.582Z,102459.23
2019-02-24T08:42:16.055Z,102467.52
2019-02-24T08:47:19.525Z,102449.79
2019-02-24T08:52:22.997Z,102450.47
2019-02-24T08:57:26.465Z,102455.84
2019-02-24T09:02:29.939Z,102464.61
2019-02-24T09:07:33.417Z,102471.19
2019-02-24T09:12:36.891Z,102461.93
2019-02-24T09:17:40.374Z,102478.48
2019-02-24T09:22:44.789Z,102493.74
2019-02-24T09:27:48.260Z,102508.25
2019-02-24T09:32:51.731Z,102520.02
2019-02-24T09:37:55.206Z,102515.69
2019-02-24T09:42:58.681Z,102503.88
2019-02-24T09:48:02.159Z,102497.98
2019-02-24T09:53:05.636Z,102487.34
2019-02-24T09:58:09.110Z,102483.59
2019-02-24T10:03:13.445Z,102490.39
2019-02-24T10:08:16.917Z,102490.03
2019-02-24T10:13:20.392Z,102486.09
2019-02-24T10:18:23.862Z,102493.45
2019-02-24T10:23:27.338Z,102489.51
2019-02-24T10:28:30.809Z,102483.16
2019-02-24T10:33:34.280Z,102499.08
2019-02-24T10:38:37.757Z,102478.72
2019-02-24T10:43:41.266Z,102473.59
2019-02-24T10:48:44.736Z,102469.55
2019-02-24T10:53:48.247Z,102445.27
2019-02-24T10:58:51.718Z,102440.88
2019-02-24T11:03:55.209Z,102438.69
2019-02-24T11:08:58.697Z,102428.40
2019-02-24T11:14:02.186Z,102443.47
2019-02-24T11:19:05.683Z,102448.57
2019-02-24T11:24:09.171Z,102442.08
2019-02-24T11:29:12.661Z,102449.20
2019-02-24T11:34:16.151Z,102451.52
2019-02-24T11:39:19.642Z,102440.16
2019-02-24T11:44:23.137Z,102445.02
2019-02-24T11:49:26.624Z,102456.53
2019-02-24T11:54:30.115Z,102458.50
2019-02-24T11:59:33.605Z,102457.70
2019-02-24T12:04:37.099Z,102444.05
2019-02-24T12:09:40.606Z,102464.63
2019-02-24T12:14:44.084Z,102482.31
2019-02-24T12:19:47.580Z,102472.45
2019-02-24T12:24:51.077Z,102467.49
2019-02-24T12:29:54.569Z,102476.76
2019-02-24T12:34:58.053Z,102475.54
2019-02-24T12:40:01.545Z,102475.64
2019-02-24T12:45:07.169Z,102472.55
2019-02-24T12:50:17.564Z,102462.94
2019-02-24T12:55:21.048Z,102455.78
2019-02-24T13:00:26.444Z,102437.97
2019-02-24T13:05:29.943Z,102427.81
2019-02-24T13:10:33.439Z,102427.81
2019-02-24T13:15:36.931Z,102437.53
2019-02-24T13:20:40.418Z,102434.98
2019-02-24T13:25:43.916Z,102429.78
2019-02-24T13:30:47.473Z,102428.80
2019-02-24T13:35:50.961Z,102430.01
2019-02-24T13:40:54.451Z,102428.04
2019-02-24T13:45:57.944Z,102422.05
2019-02-24T13:51:01.428Z,102418.77
2019-02-24T13:56:05.098Z,102398.80
2019-02-24T14:01:08.583Z,102402.80
2019-02-24T14:06:12.073Z,102410.34
2019-02-24T14:11:15.557Z,102403.02
2019-02-24T14:16:19.050Z,102399.44
2019-02-24T14:21:22.542Z,102398.05
2019-02-24T14:26:26.034Z,102408.34
2019-02-24T14:31:29.594Z,102407.17
2019-02-24T14:36:33.093Z,102407.17
2019-02-24T14:41:36.584Z,102402.43
2019-02-24T14:46:40.072Z,102407.98
2019-02-24T14:51:43.566Z,102408.20
2019-02-24T14:56:47.063Z,102401.84
2019-02-24T15:01:50.560Z,102400.45
2019-02-24T15:06:54.056Z,102406.45
2019-02-24T15:11:57.546Z,102397.10
2019-02-24T15:17:01.038Z,102393.75
2019-02-24T15:22:04.535Z,102398.49
2019-02-24T15:27:08.036Z,102395.27
2019-02-24T15:32:11.531Z,102390.75
2019-02-24T15:37:15.024Z,102393.30
2019-02-24T15:42:18.519Z,102384.17
2019-02-24T15:47:22.353Z,102385.78
2019-02-24T15:52:25.838Z,102383.59
2019-02-24T15:57:29.331Z,102391.33
2019-02-24T16:02:32.819Z,102377.23
2019-02-24T16:07:36.307Z,102380.81
2019-02-24T16:12:39.793Z,102386.36
2019-02-24T16:17:43.306Z,102375.48
2019-02-24T16:22:46.773Z,102376.66
2019-02-24T16:27:50.265Z,102384.76
2019-02-24T16:32:53.770Z,102381.41
2019-02-24T16:37:57.258Z,102378.63
2019-02-24T16:43:00.744Z,102377.05
2019-02-24T16:48:04.313Z,102381.41
2019-02-24T16:53:07.793Z,102386.77
2019-02-24T16:58:11.273Z,102378.63
2019-02-24T17:03:19.830Z,102389.72
2019-02-24T17:08:19.940Z,102379.82
2019-02-24T17:13:23.416Z,102380.41
2019-02-24T17:18:26.883Z,102391.86
2019-02-24T17:23:30.357Z,102390.70
2019-02-24T17:28:33.833Z,102398.27
2019-02-24T17:33:37.407Z,102401.27
2019-02-24T17:38:40.884Z,102407.84
2019-02-24T17:43:44.361Z,102403.09
2019-02-24T17:48:47.830Z,102399.16
2019-02-24T17:53:51.301Z,102407.30
2019-02-24T17:58:54.774Z,102418.27
2019-02-24T18:03:58.256Z,102426.59
2019-02-24T18:09:01.729Z,102428.20
2019-02-24T18:14:05.198Z,102420.31
2019-02-24T18:19:08.670Z,102427.45
2019-02-24T18:24:12.143Z,102416.34
2019-02-24T18:29:15.619Z,102415.98
2019-02-24T18:34:19.089Z,102407.08
2019-02-24T18:39:22.563Z,102398.97
2019-02-24T18:44:27.679Z,102395.61
2019-02-24T18:49:31.150Z,102399.41
2019-02-24T18:54:35.134Z,102381.38
2019-02-24T18:59:38.665Z,102389.70
2019-02-24T19:04:42.142Z,102384.52
2019-02-24T19:09:45.628Z,102378.59
2019-02-24T19:14:49.106Z,102372.46
2019-02-24T19:19:52.586Z,102381.78
2019-02-24T19:24:56.058Z,102392.11
2019-02-24T19:29:59.530Z,102394.48
2019-02-24T19:35:03.076Z,102392.30
2019-02-24T19:40:09.752Z,102399.23
2019-02-24T19:45:15.564Z,102396.09
2019-02-24T19:50:19.104Z,102402.02
2019-02-24T19:55:22.584Z,102408.95
2019-02-24T20:00:26.806Z,102403.80
2019-02-24T20:05:30.271Z,102414.72
2019-02-24T20:10:33.747Z,102411.36
2019-02-24T20:15:37.226Z,102426.63
2019-02-24T20:20:40.698Z,102434.95
2019-02-24T20:25:44.176Z,102415.40
2019-02-24T20:30:47.647Z,102415.40
2019-02-24T20:35:51.122Z,102427.80
2019-02-24T20:40:54.592Z,102423.80
2019-02-24T20:45:58.076Z,102422.64
2019-02-24T20:51:01.552Z,102422.64
2019-02-24T20:56:05.095Z,102417.45
2019-02-24T21:01:10.210Z,102408.32
2019-02-24T21:06:13.686Z,102406.93
2019-02-24T21:11:17.164Z,102404.30
2019-02-24T21:16:20.639Z,102410.16
2019-02-24T21:21:24.118Z,102408.11
2019-02-24T21:26:27.589Z,102415.41
2019-02-24T21:31:31.067Z,102417.19
2019-02-24T21:36:34.536Z,102412.00
2019-02-24T21:41:38.011Z,102409.37
2019-02-24T21:46:41.482Z,102418.86
2019-02-24T21:51:44.964Z,102415.89
2019-02-24T21:56:48.441Z,102423.19
2019-02-24T22:01:51.916Z,102427.94
2019-02-24T22:06:55.385Z,102424.09
2019-02-24T22:11:59.530Z,102424.46
2019-02-24T22:17:03.001Z,102424.46
2019-02-24T22:22:06.468Z,102433.14
2019-02-24T22:27:09.943Z,102442.48
2019-02-24T22:32:13.417Z,102432.95
2019-02-24T22:37:16.886Z,102427.19
2019-02-24T22:42:20.361Z,102433.09
2019-02-24T22:47:23.844Z,102438.64
2019-02-24T22:52:27.316Z,102438.86
2019-02-24T22:57:30.793Z,102454.70
2019-02-24T23:02:34.268Z,102464.19
2019-02-24T23:07:37.746Z,102463.38
2019-02-24T23:12:41.384Z,102451.25
2019-02-24T23:17:44.858Z,102445.70
2019-02-24T23:22:48.338Z,102440.74
2019-02-24T23:27:51.814Z,102437.75
2019-02-24T23:32:55.288Z,102427.27
2019-02-24T23:37:58.765Z,102427.84
2019-02-24T23:43:02.242Z,102426.46
2019-02-24T23:48:05.722Z,102423.23
2019-02-24T23:53:09.198Z,102421.85
2019-02-24T23:58:13.136Z,102424.62
